createdAt,value
2022-11-09T00:01:04.869Z,98080.36
2022-11-09T00:03:32.416Z,98079.85
2022-11-09T00:06:00.989Z,98087.86
2022-11-09T00:08:29.349Z,98092.70
2022-11-09T00:11:07.191Z,98091.37
2022-11-09T00:13:40.589Z,98083.40
2022-11-09T00:16:10.996Z,98090.61
2022-11-09T00:18:38.600Z,98090.11
2022-11-09T00:21:09.497Z,98085.06
2022-11-09T00:23:37.391Z,98085.06
2022-11-09T00:26:08.544Z,98085.06
2022-11-09T00:28:36.998Z,98091.73
2022-11-09T00:31:10.145Z,98084.55
2022-11-09T00:33:39.635Z,98081.34
2022-11-09T00:36:11.110Z,98076.55
2022-11-09T00:38:43.050Z,98073.63
2022-11-09T00:41:11.748Z,98072.05
2022-11-09T00:43:39.526Z,98075.28
2022-11-09T00:46:08.436Z,98073.94
2022-11-09T00:48:37.149Z,98070.48
2022-11-09T00:51:05.708Z,98071.81
2022-11-09T00:53:33.534Z,98074.22
2022-11-09T00:56:05.456Z,98071.05
2022-11-09T00:58:37.710Z,98070.51
2022-11-09T01:01:12.605Z,98064.09
2022-11-09T01:03:44.028Z,98066.50
2022-11-09T01:06:21.000Z,98064.66
2022-11-09T01:08:49.853Z,98056.38
2022-11-09T01:11:19.544Z,98058.54
2022-11-09T01:13:47.444Z,98052.13
2022-11-09T01:16:19.607Z,98050.80
2022-11-09T01:18:47.910Z,98050.55
2022-11-09T01:21:16.790Z,98052.67
2022-11-09T01:23:44.760Z,98056.38
2022-11-09T01:26:14.431Z,98049.46
2022-11-09T01:28:43.944Z,98049.20
2022-11-09T01:31:18.354Z,98049.75
2022-11-09T01:33:46.852Z,98046.80
2022-11-09T01:36:19.502Z,98045.20
2022-11-09T01:38:48.586Z,98049.74
2022-11-09T01:41:21.488Z,98047.88
2022-11-09T01:44:09.996Z,98045.46
2022-11-09T01:46:55.045Z,98041.49
2022-11-09T01:49:40.537Z,98044.41
2022-11-09T01:52:17.374Z,98049.20
2022-11-09T01:54:55.483Z,98047.36
2022-11-09T01:57:28.822Z,98049.48
2022-11-09T02:00:10.910Z,98043.89
2022-11-09T02:02:52.872Z,98048.45
2022-11-09T02:05:25.226Z,98049.27
2022-11-09T02:07:55.568Z,98048.72
2022-11-09T02:10:37.839Z,98044.75
2022-11-09T02:13:07.277Z,98046.33
2022-11-09T02:15:41.475Z,98048.20
2022-11-09T02:18:08.612Z,98046.33
2022-11-09T02:20:55.712Z,98047.91
2022-11-09T02:23:26.348Z,98048.73
2022-11-09T02:26:05.374Z,98051.14
2022-11-09T02:28:35.340Z,98047.14
2022-11-09T02:31:08.000Z,98049.27
2022-11-09T02:34:02.550Z,98053.27
2022-11-09T02:36:30.511Z,98050.84
2022-11-09T02:38:58.555Z,98053.00
2022-11-09T02:41:28.337Z,98061.78
2022-11-09T02:43:57.591Z,98058.86
2022-11-09T02:46:33.637Z,98058.32
2022-11-09T02:49:02.824Z,98056.73
2022-11-09T02:51:31.022Z,98058.31
2022-11-09T02:53:59.061Z,98055.13
2022-11-09T02:56:27.991Z,98063.91
2022-11-09T02:58:55.806Z,98064.19
2022-11-09T03:01:23.448Z,98061.77
2022-11-09T03:03:51.275Z,98060.45
2022-11-09T03:06:19.243Z,98055.68
2022-11-09T03:08:46.925Z,98054.88
2022-11-09T03:11:15.188Z,98053.00
2022-11-09T03:13:43.419Z,98055.67
2022-11-09T03:16:11.085Z,98064.19
2022-11-09T03:18:39.985Z,98055.91
2022-11-09T03:21:08.267Z,98056.19
2022-11-09T03:23:36.594Z,98055.92
2022-11-09T03:26:04.651Z,98057.25
2022-11-09T03:28:32.441Z,98055.38
2022-11-09T03:31:01.077Z,98053.52
2022-11-09T03:33:28.909Z,98057.27
2022-11-09T03:35:57.205Z,98059.64
2022-11-09T03:38:25.370Z,98059.64
2022-11-09T03:40:53.520Z,98055.92
2022-11-09T03:43:21.819Z,98053.79
2022-11-09T03:45:50.126Z,98055.94
2022-11-09T03:48:17.942Z,98052.47
2022-11-09T03:50:45.765Z,98054.32
2022-11-09T03:53:13.801Z,98057.25
2022-11-09T03:55:41.743Z,98057.77
2022-11-09T03:58:12.575Z,98053.22
2022-11-09T04:00:40.571Z,98054.02
2022-11-09T04:03:08.357Z,98054.82
2022-11-09T04:05:36.159Z,98057.47
2022-11-09T04:08:04.252Z,98056.67
2022-11-09T04:10:32.136Z,98059.56
2022-11-09T04:12:59.914Z,98059.30
2022-11-09T04:15:27.618Z,98059.30
2022-11-09T04:18:00.753Z,98061.44
2022-11-09T04:20:30.589Z,98063.54
2022-11-09T04:23:01.295Z,98059.55
2022-11-09T04:25:36.063Z,98061.66
2022-11-09T04:28:06.374Z,98065.37
2022-11-09T04:30:36.758Z,98065.11
2022-11-09T04:33:05.584Z,98063.50
2022-11-09T04:35:34.209Z,98062.69
2022-11-09T04:38:06.081Z,98066.64
2022-11-09T04:40:35.819Z,98061.05
2022-11-09T04:43:08.315Z,98057.31
2022-11-09T04:45:36.196Z,98062.34
2022-11-09T04:48:06.933Z,98062.07
2022-11-09T04:50:35.521Z,98065.00
2022-11-09T04:53:12.372Z,98065.00
2022-11-09T04:55:41.587Z,98061.55
2022-11-09T04:58:10.492Z,98062.08
2022-11-09T05:00:38.507Z,98068.73
2022-11-09T05:03:07.764Z,98069.52
2022-11-09T05:05:37.868Z,98072.17
2022-11-09T05:08:06.475Z,98072.72
2022-11-09T05:10:35.859Z,98075.64
2022-11-09T05:13:06.999Z,98073.27
2022-11-09T05:15:36.262Z,98077.25
2022-11-09T05:18:04.699Z,98078.88
2022-11-09T05:20:33.277Z,98082.59
2022-11-09T05:23:20.822Z,98085.50
2022-11-09T05:25:49.483Z,98081.81
2022-11-09T05:28:18.108Z,98084.47
2022-11-09T05:30:46.124Z,98089.81
2022-11-09T05:33:15.753Z,98092.55
2022-11-09T05:35:43.528Z,98093.16
2022-11-09T05:38:14.210Z,98093.75
2022-11-09T05:40:42.756Z,98097.98
2022-11-09T05:43:11.178Z,98095.02
2022-11-09T05:45:43.767Z,98102.11
2022-11-09T05:48:09.309Z,98100.91
2022-11-09T05:50:38.426Z,98107.44
2022-11-09T05:53:20.398Z,98103.22
2022-11-09T05:55:48.739Z,98105.81
2022-11-09T05:58:16.622Z,98106.82
2022-11-09T06:00:44.586Z,98107.91
2022-11-09T06:03:12.695Z,98104.59
2022-11-09T06:05:41.129Z,98110.16
2022-11-09T06:08:14.616Z,98111.25
2022-11-09T06:10:43.003Z,98113.52
2022-11-09T06:13:13.582Z,98112.59
2022-11-09T06:15:41.453Z,98118.52
2022-11-09T06:18:09.160Z,98123.45
2022-11-09T06:20:37.147Z,98120.10
2022-11-09T06:23:04.961Z,98118.25
2022-11-09T06:25:34.738Z,98125.50
2022-11-09T06:28:04.776Z,98124.19
2022-11-09T06:30:37.236Z,98128.33
2022-11-09T06:33:06.214Z,98126.16
2022-11-09T06:35:34.304Z,98126.68
2022-11-09T06:38:02.253Z,98124.16
2022-11-09T06:40:31.456Z,98122.20
2022-11-09T06:43:00.802Z,98120.02
2022-11-09T06:45:30.608Z,98120.98
2022-11-09T06:48:01.604Z,98124.84
2022-11-09T06:50:33.008Z,98124.67
2022-11-09T06:53:05.013Z,98119.45
2022-11-09T06:55:35.000Z,98122.00
2022-11-09T06:58:08.772Z,98120.86
2022-11-09T07:00:37.186Z,98117.28
2022-11-09T07:03:04.992Z,98113.42
2022-11-09T07:05:32.953Z,98113.28
2022-11-09T07:08:00.794Z,98112.76
2022-11-09T07:10:28.675Z,98111.07
2022-11-09T07:12:58.582Z,98108.20
2022-11-09T07:15:26.419Z,98101.69
2022-11-09T07:18:00.802Z,98103.30
2022-11-09T07:20:29.127Z,98099.81
2022-11-09T07:22:59.738Z,98096.41
2022-11-09T07:25:27.578Z,98098.73
2022-11-09T07:27:55.380Z,98098.19
2022-11-09T07:30:23.109Z,98091.06
2022-11-09T07:33:08.527Z,98083.75
2022-11-09T07:35:20.795Z,98088.90
2022-11-09T07:37:50.117Z,98092.28
2022-11-09T07:40:18.131Z,98092.52
2022-11-09T07:42:46.001Z,98093.26
2022-11-09T07:45:13.688Z,98092.41
2022-11-09T07:47:41.815Z,98090.98
2022-11-09T07:50:10.094Z,98088.45
2022-11-09T07:52:41.033Z,98087.58
2022-11-09T07:55:09.040Z,98086.05
2022-11-09T07:57:36.523Z,98088.34
2022-11-09T08:00:09.251Z,98088.97
2022-11-09T08:02:38.883Z,98080.67
2022-11-09T08:05:07.463Z,98084.48
2022-11-09T08:07:38.209Z,98086.27
2022-11-09T08:10:06.758Z,98086.59
2022-11-09T08:12:38.558Z,98090.27
2022-11-09T08:15:10.013Z,98085.91
2022-11-09T08:17:37.425Z,98087.21
2022-11-09T08:20:06.485Z,98087.52
2022-11-09T08:22:41.192Z,98082.83
2022-11-09T08:25:09.736Z,98081.56
2022-11-09T08:27:39.417Z,98078.66
2022-11-09T08:30:13.890Z,98080.94
2022-11-09T08:32:43.518Z,98074.83
2022-11-09T08:35:16.410Z,98075.19
2022-11-09T08:37:46.244Z,98075.09
2022-11-09T08:40:16.804Z,98077.19
2022-11-09T08:42:45.167Z,98075.89
2022-11-09T08:45:15.721Z,98074.44
2022-11-09T08:47:44.485Z,98079.11
2022-11-09T08:50:14.490Z,98077.67
2022-11-09T08:52:42.418Z,98069.31
2022-11-09T08:55:10.221Z,98074.02
2022-11-09T08:57:38.204Z,98070.36
2022-11-09T09:00:07.356Z,98072.87
2022-11-09T09:02:35.194Z,98065.92
2022-11-09T09:05:04.150Z,98069.89
2022-11-09T09:07:32.045Z,98069.70
2022-11-09T09:09:59.955Z,98071.67
2022-11-09T09:12:29.985Z,98072.97
2022-11-09T09:14:57.709Z,98070.95
2022-11-09T09:17:25.399Z,98065.69
2022-11-09T09:19:53.364Z,98061.61
2022-11-09T09:22:21.320Z,98061.83
2022-11-09T09:24:49.206Z,98059.38
2022-11-09T09:27:19.141Z,98053.71
2022-11-09T09:29:47.003Z,98055.08
2022-11-09T09:32:14.733Z,98051.91
2022-11-09T09:34:42.329Z,98053.80
2022-11-09T09:37:09.985Z,98041.81
2022-11-09T09:39:37.412Z,98040.41
2022-11-09T09:42:10.896Z,98045.63
2022-11-09T09:44:59.921Z,98038.42
2022-11-09T09:48:05.967Z,98043.84
2022-11-09T09:50:52.446Z,98035.45
2022-11-09T09:53:43.557Z,98036.92
2022-11-09T09:56:18.995Z,98033.10
2022-11-09T09:59:13.338Z,98027.77
2022-11-09T10:01:44.069Z,98024.92
2022-11-09T10:04:37.593Z,98019.00
2022-11-09T10:07:42.902Z,98016.56
2022-11-09T10:10:41.910Z,98015.81
2022-11-09T10:13:32.738Z,98011.61
2022-11-09T10:16:14.929Z,98006.75
2022-11-09T10:19:11.040Z,98010.23
2022-11-09T10:22:07.726Z,97997.88
2022-11-09T10:25:12.210Z,98003.83
2022-11-09T10:27:38.062Z,97998.56
2022-11-09T10:30:16.342Z,98000.11
2022-11-09T10:32:52.631Z,97995.86
2022-11-09T10:35:30.731Z,97996.86
2022-11-09T10:37:58.483Z,97990.57
2022-11-09T10:40:46.991Z,97999.10
2022-11-09T10:43:33.182Z,97991.82
2022-11-09T10:46:20.817Z,97984.69
2022-11-09T10:49:21.426Z,97985.47
2022-11-09T10:52:32.467Z,97978.36
2022-11-09T10:55:26.977Z,97986.47
2022-11-09T10:58:28.948Z,97974.28
2022-11-09T11:01:27.292Z,97970.74
2022-11-09T11:04:27.761Z,97963.50
2022-11-09T11:07:21.215Z,97958.64
2022-11-09T11:10:20.682Z,97955.22
2022-11-09T11:13:12.817Z,97958.06
2022-11-09T11:16:00.645Z,97956.33
2022-11-09T11:18:47.815Z,97957.33
2022-11-09T11:21:34.090Z,97948.39
2022-11-09T11:24:32.978Z,97950.48
2022-11-09T11:27:42.554Z,97947.28
2022-11-09T11:30:37.462Z,97949.21
2022-11-09T11:33:24.412Z,97948.14
2022-11-09T11:36:27.703Z,97947.97
2022-11-09T11:39:29.500Z,97944.48
2022-11-09T11:42:21.984Z,97941.96
2022-11-09T11:45:39.048Z,97927.02
2022-11-09T11:48:10.351Z,97940.27
2022-11-09T11:51:11.265Z,97943.02
2022-11-09T11:54:20.154Z,97937.88
2022-11-09T11:57:30.837Z,97936.68
2022-11-09T12:00:23.170Z,97935.73
2022-11-09T12:03:38.426Z,97936.19
2022-11-09T12:06:45.332Z,97939.20
2022-11-09T12:10:01.345Z,97934.55
2022-11-09T12:13:28.353Z,97926.77
2022-11-09T12:16:49.076Z,97929.56
2022-11-09T12:19:49.755Z,97925.62
2022-11-09T12:22:53.862Z,97922.38
2022-11-09T12:26:17.059Z,97920.47
2022-11-09T12:29:11.103Z,97917.12
2022-11-09T12:32:18.004Z,97918.89
2022-11-09T12:35:21.176Z,97916.09
2022-11-09T12:38:31.042Z,97909.51
2022-11-09T12:41:20.614Z,97909.72
2022-11-09T12:44:30.821Z,97912.80
2022-11-09T12:47:22.486Z,97909.88
2022-11-09T12:50:19.281Z,97903.87
2022-11-09T12:53:07.758Z,97902.06
2022-11-09T12:56:16.819Z,97902.42
2022-11-09T12:59:28.243Z,97899.47
2022-11-09T13:02:31.221Z,97899.05
2022-11-09T13:05:37.250Z,97896.73
2022-11-09T13:08:29.108Z,97894.56
2022-11-09T13:11:38.931Z,97896.02
2022-11-09T13:14:31.171Z,97896.37
2022-11-09T13:17:33.399Z,97897.90
2022-11-09T13:20:56.898Z,97907.05
2022-11-09T13:26:37.033Z,97890.70
2022-11-09T13:29:53.587Z,97891.75
2022-11-09T13:32:37.565Z,97895.94
2022-11-09T13:35:48.144Z,97891.22
2022-11-09T13:38:36.958Z,97895.08
2022-11-09T13:41:36.977Z,97896.71
2022-11-09T13:44:32.730Z,97897.41
2022-11-09T13:47:31.754Z,97899.02
2022-11-09T13:50:25.660Z,97902.55
2022-11-09T13:53:52.357Z,97901.45
2022-11-09T13:56:40.877Z,97896.38
2022-11-09T13:59:41.190Z,97896.91
2022-11-09T14:02:27.605Z,97895.34
2022-11-09T14:05:30.260Z,97896.89
2022-11-09T14:11:57.518Z,97895.67
2022-11-09T14:15:17.849Z,97895.12
2022-11-09T14:18:15.279Z,97895.11
2022-11-09T14:21:45.672Z,97888.91
2022-11-09T14:24:36.504Z,97894.21
2022-11-09T14:27:24.439Z,97891.91
2022-11-09T14:30:20.931Z,97888.17
2022-11-09T14:33:32.723Z,97886.26
2022-11-09T14:36:19.103Z,97891.95
2022-11-09T14:39:16.181Z,97897.17
2022-11-09T14:42:05.556Z,97895.27
2022-11-09T14:44:51.741Z,97891.37
2022-11-09T14:47:38.997Z,97898.91
2022-11-09T14:50:30.855Z,97900.03
2022-11-09T14:53:31.585Z,97902.56
2022-11-09T14:56:21.758Z,97906.70
2022-11-09T14:59:15.956Z,97908.17
2022-11-09T15:06:12.043Z,97902.84
2022-11-09T15:09:22.473Z,97908.72
2022-11-09T15:12:18.810Z,97908.31
2022-11-09T15:18:27.941Z,97911.98
2022-11-09T15:21:34.126Z,97914.64
2022-11-09T15:24:22.556Z,97916.60
2022-11-09T15:27:35.045Z,97911.69
2022-11-09T15:30:45.839Z,97919.47
2022-11-09T15:33:54.685Z,97923.11
2022-11-09T15:36:54.337Z,97920.53
2022-11-09T15:39:43.998Z,97919.02
2022-11-09T15:42:40.071Z,97925.89
2022-11-09T15:45:28.153Z,97920.39
2022-11-09T15:48:14.358Z,97923.95
2022-11-09T15:51:00.802Z,97925.39
2022-11-09T15:53:47.219Z,97930.56
2022-11-09T15:56:35.684Z,97929.55
2022-11-09T15:59:26.978Z,97925.88
2022-11-09T16:02:13.882Z,97920.16
2022-11-09T16:05:00.422Z,97942.18
2022-11-09T16:07:54.497Z,97935.73
2022-11-09T16:10:43.897Z,97948.02
2022-11-09T16:13:29.791Z,97945.34
2022-11-09T16:16:16.119Z,97949.36
2022-11-09T16:19:02.530Z,97943.79
2022-11-09T16:21:54.097Z,97945.46
2022-11-09T16:24:40.662Z,97951.17
2022-11-09T16:27:48.893Z,97953.69
2022-11-09T16:30:16.501Z,97954.75
2022-11-09T16:33:02.732Z,97955.88
2022-11-09T16:35:49.658Z,97951.92
2022-11-09T16:38:41.158Z,97951.16
2022-11-09T16:41:27.507Z,97950.30
2022-11-09T16:44:17.516Z,97960.73
2022-11-09T16:47:07.277Z,97958.61
2022-11-09T16:49:53.164Z,97958.63
2022-11-09T16:52:46.395Z,97964.53
2022-11-09T16:55:48.171Z,97966.91
2022-11-09T16:58:37.531Z,97974.61
2022-11-09T17:01:28.092Z,97976.47
2022-11-09T17:04:14.810Z,97971.36
2022-11-09T17:07:17.716Z,97978.59
2022-11-09T17:13:38.307Z,97977.02
2022-11-09T17:16:45.518Z,97971.91
2022-11-09T17:19:34.144Z,97967.64
2022-11-09T17:22:21.095Z,97967.38
2022-11-09T17:25:16.439Z,97964.97
2022-11-09T17:28:04.417Z,97960.11
2022-11-09T17:30:52.128Z,97955.25
2022-11-09T17:33:38.244Z,97957.32
2022-11-09T17:36:48.869Z,97952.23
2022-11-09T17:39:20.885Z,97953.25
2022-11-09T17:42:20.936Z,97954.01
2022-11-09T17:45:08.222Z,97954.77
2022-11-09T17:47:54.289Z,97963.02
2022-11-09T17:50:45.415Z,97961.89
2022-11-09T17:53:40.607Z,97959.98
2022-11-09T17:56:30.135Z,97963.45
2022-11-09T17:59:17.132Z,97964.45
2022-11-09T18:02:03.912Z,97950.21
2022-11-09T18:04:53.408Z,97953.95
2022-11-09T18:07:41.827Z,97956.33
2022-11-09T18:10:28.067Z,97953.16
2022-11-09T18:13:13.592Z,97961.23
2022-11-09T18:16:08.877Z,97968.74
2022-11-09T18:19:01.293Z,97967.92
2022-11-09T18:21:47.176Z,97967.09
2022-11-09T18:24:36.215Z,97973.48
2022-11-09T18:27:29.070Z,97962.26
2022-11-09T18:30:16.045Z,97972.45
2022-11-09T18:33:02.026Z,97969.08
2022-11-09T18:36:03.666Z,97969.13
2022-11-09T18:38:51.420Z,97974.52
2022-11-09T18:41:39.904Z,97982.00
2022-11-09T18:44:26.069Z,97983.58
2022-11-09T18:47:14.703Z,97985.20
2022-11-09T18:50:20.703Z,97990.77
2022-11-09T18:53:06.860Z,97989.37
2022-11-09T18:56:06.070Z,97992.11
2022-11-09T18:58:52.460Z,97992.11
2022-11-09T19:01:39.682Z,97999.31
2022-11-09T19:04:27.554Z,97995.03
2022-11-09T19:07:13.305Z,97994.72
2022-11-09T19:09:58.700Z,97996.86
2022-11-09T19:12:51.436Z,97997.70
2022-11-09T19:15:41.334Z,97990.83
2022-11-09T19:18:31.206Z,97990.61
2022-11-09T19:21:43.638Z,97992.88
2022-11-09T19:24:33.251Z,97994.63
2022-11-09T19:27:21.254Z,97994.13
2022-11-09T19:30:09.790Z,97990.12
2022-11-09T19:32:58.695Z,97994.43
2022-11-09T19:36:08.155Z,97997.43
2022-11-09T19:38:38.792Z,97998.80
2022-11-09T19:41:30.662Z,97999.64
2022-11-09T19:44:17.607Z,97998.57
2022-11-09T19:47:04.271Z,97993.00
2022-11-09T19:49:50.609Z,97987.45
2022-11-09T19:52:37.079Z,97993.67
2022-11-09T19:55:24.704Z,97993.47
2022-11-09T19:58:11.112Z,97997.55
2022-11-09T20:01:08.757Z,97989.08
2022-11-09T20:03:57.610Z,97995.80
2022-11-09T20:06:44.268Z,97993.75
2022-11-09T20:09:31.766Z,97992.75
2022-11-09T20:12:36.856Z,97999.99
2022-11-09T20:15:23.874Z,97994.68
2022-11-09T20:18:10.554Z,97996.08
2022-11-09T20:20:56.955Z,97994.53
2022-11-09T20:23:43.337Z,97990.05
2022-11-09T20:26:31.480Z,97989.28
2022-11-09T20:29:18.396Z,97980.23
2022-11-09T20:32:05.285Z,97995.47
2022-11-09T20:34:51.823Z,97988.80
2022-11-09T20:37:39.792Z,97987.47
2022-11-09T20:40:27.735Z,97986.93
2022-11-09T20:43:15.184Z,97982.92
2022-11-09T20:46:08.098Z,97988.80
2022-11-09T20:48:55.553Z,97991.00
2022-11-09T20:51:41.711Z,97987.00
2022-11-09T20:54:28.004Z,97993.44
2022-11-09T20:57:14.287Z,97995.59
2022-11-09T21:00:00.886Z,97988.38
2022-11-09T21:02:48.501Z,97988.15
2022-11-09T21:05:34.785Z,97986.59
2022-11-09T21:08:21.449Z,97989.02
2022-11-09T21:11:12.124Z,97986.37
2022-11-09T21:13:58.527Z,97988.26
2022-11-09T21:16:45.464Z,97990.44
2022-11-09T21:19:32.219Z,97984.36
2022-11-09T21:22:18.328Z,97989.98
2022-11-09T21:25:23.346Z,97992.95
2022-11-09T21:28:34.758Z,97984.16
2022-11-09T21:31:21.906Z,97988.20
2022-11-09T21:34:07.905Z,97991.67
2022-11-09T21:36:54.884Z,97998.10
2022-11-09T21:39:42.053Z,97992.81
2022-11-09T21:42:28.476Z,97996.05
2022-11-09T21:45:15.121Z,97998.52
2022-11-09T21:48:01.638Z,97992.15
2022-11-09T21:50:47.711Z,97985.78
2022-11-09T21:53:36.281Z,97990.09
2022-11-09T21:56:23.860Z,97991.75
2022-11-09T21:59:10.128Z,97987.50
2022-11-09T22:01:56.781Z,97987.25
2022-11-09T22:04:42.524Z,97992.34
2022-11-09T22:07:28.891Z,97997.92
2022-11-09T22:10:16.324Z,97994.22
2022-11-09T22:13:21.847Z,97994.75
2022-11-09T22:16:09.433Z,97994.22
2022-11-09T22:19:14.472Z,97995.84
2022-11-09T22:22:00.880Z,97999.33
2022-11-09T22:24:47.439Z,97995.33
2022-11-09T22:27:34.801Z,97997.75
2022-11-09T22:30:20.998Z,97997.77
2022-11-09T22:33:07.251Z,97994.31
2022-11-09T22:35:56.691Z,97997.55
2022-11-09T22:38:42.947Z,97993.29
2022-11-09T22:41:29.264Z,97998.39
2022-11-09T22:44:16.105Z,97990.39
2022-11-09T22:47:02.160Z,97993.59
2022-11-09T22:49:48.481Z,97996.80
2022-11-09T22:52:34.874Z,97999.20
2022-11-09T22:55:21.081Z,97984.30
2022-11-09T22:58:07.331Z,97994.42
2022-11-09T23:00:53.777Z,98002.41
2022-11-09T23:03:40.680Z,98002.14
2022-11-09T23:06:26.969Z,97999.21
2022-11-09T23:09:13.582Z,97998.70
2022-11-09T23:11:59.395Z,97998.44
2022-11-09T23:15:03.694Z,97998.42
2022-11-09T23:18:14.784Z,97996.56
2022-11-09T23:21:01.234Z,97999.48
2022-11-09T23:23:47.863Z,97991.23
2022-11-09T23:26:34.861Z,97993.38
2022-11-09T23:29:20.742Z,98000.55
2022-11-09T23:32:06.767Z,98001.88
2022-11-09T23:34:53.103Z,97999.49
2022-11-09T23:37:39.687Z,98009.35
2022-11-09T23:40:26.189Z,98006.69
2022-11-09T23:43:12.707Z,98004.03
2022-11-09T23:46:10.520Z,98011.48
2022-11-09T23:48:56.786Z,98002.94
2022-11-09T23:51:42.759Z,98008.82
2022-11-09T23:54:28.709Z,98012.01
2022-11-09T23:57:14.851Z,98017.31
